RYR8YV LFLL-EBCI
Flight info
| Callsign | RYR8YV |
|---|---|
| Flight time | N/A |
| Altitude | 33000 |
| Route | ALUR8N ALURA DJL SOMDA VATRI REM Y50 ELVES |
| Aircraft | B738/M-SDE3FGHIRWY/L |
Departure
| Time | 2026-05-07 10:48 |
|---|---|
| Airport | Lyon Saint-Exupéry Airport (LFLL) |
Arrival
| Time | N/A |
|---|---|
| Airport | Brussels South Charleroi Airport (EBCI) |
| Time | Latitude | Longitude | Altitude | Speed | Heading |
|---|---|---|---|---|---|
| 2026-05-07 10:14 | 45.72045 | 5.08110 | 797 ft | 0 kts | 343° |
| 2026-05-07 10:35 | 45.72041 | 5.08111 | 797 ft | 2 kts | 343° |
| 2026-05-07 10:35 | 45.72028 | 5.08117 | 797 ft | 0 kts | 342° |
| 2026-05-07 10:36 | 45.72017 | 5.08123 | 797 ft | 2 kts | 329° |
| 2026-05-07 10:36 | 45.72006 | 5.08135 | 797 ft | 2 kts | 313° |
| 2026-05-07 10:36 | 45.71997 | 5.08152 | 798 ft | 2 kts | 296° |
| 2026-05-07 10:36 | 45.71993 | 5.08170 | 798 ft | 1 kts | 280° |
| 2026-05-07 10:37 | 45.71992 | 5.08190 | 798 ft | 2 kts | 264° |
| 2026-05-07 10:37 | 45.71995 | 5.08211 | 798 ft | 2 kts | 247° |
| 2026-05-07 10:37 | 45.72003 | 5.08229 | 798 ft | 2 kts | 229° |
| 2026-05-07 10:37 | 45.72013 | 5.08242 | 798 ft | 2 kts | 213° |
| 2026-05-07 10:38 | 45.72025 | 5.08251 | 798 ft | 0 kts | 197° |
| 2026-05-07 10:38 | 45.72031 | 5.08254 | 798 ft | 0 kts | 194° |
| 2026-05-07 10:38 | 45.72032 | 5.08254 | 798 ft | 0 kts | 194° |
| 2026-05-07 10:40 | 45.72012 | 5.08249 | 798 ft | 6 kts | 178° |
| 2026-05-07 10:40 | 45.71979 | 5.08276 | 799 ft | 6 kts | 121° |
| 2026-05-07 10:41 | 45.71961 | 5.08347 | 800 ft | 8 kts | 105° |
| 2026-05-07 10:41 | 45.71943 | 5.08434 | 801 ft | 10 kts | 122° |
| 2026-05-07 10:41 | 45.71870 | 5.08469 | 802 ft | 12 kts | 174° |
| 2026-05-07 10:41 | 45.71785 | 5.08479 | 803 ft | 13 kts | 175° |
| 2026-05-07 10:42 | 45.71748 | 5.08483 | 804 ft | 12 kts | 175° |
| 2026-05-07 10:42 | 45.71670 | 5.08493 | 805 ft | 10 kts | 175° |
| 2026-05-07 10:42 | 45.71607 | 5.08500 | 806 ft | 8 kts | 174° |
| 2026-05-07 10:43 | 45.71532 | 5.08511 | 807 ft | 14 kts | 174° |
| 2026-05-07 10:43 | 45.71408 | 5.08526 | 808 ft | 21 kts | 175° |
| 2026-05-07 10:43 | 45.71295 | 5.08539 | 810 ft | 19 kts | 175° |
| 2026-05-07 10:43 | 45.71178 | 5.08559 | 813 ft | 11 kts | 161° |
| 2026-05-07 10:44 | 45.71125 | 5.08629 | 815 ft | 7 kts | 114° |
| 2026-05-07 10:44 | 45.71109 | 5.08704 | 816 ft | 9 kts | 104° |
| 2026-05-07 10:44 | 45.71093 | 5.08791 | 819 ft | 0 kts | 105° |
| 2026-05-07 10:45 | 45.71088 | 5.08815 | 819 ft | 8 kts | 105° |
| 2026-05-07 10:45 | 45.71098 | 5.08967 | 821 ft | 24 kts | 47° |
| 2026-05-07 10:46 | 45.71184 | 5.09017 | 821 ft | 0 kts | 354° |
| 2026-05-07 10:46 | 45.71195 | 5.09016 | 821 ft | 0 kts | 354° |
| 2026-05-07 10:47 | 45.71466 | 5.08981 | 816 ft | 81 kts | 355° |
| 2026-05-07 10:47 | 45.72262 | 5.08884 | 805 ft | 152 kts | 355° |
| 2026-05-07 10:47 | 45.73165 | 5.08771 | 887 ft | 188 kts | 354° |
| 2026-05-07 10:48 | 45.76015 | 5.08439 | 2684 ft | 202 kts | 356° |
| 2026-05-07 10:48 | 45.77557 | 5.08265 | 3551 ft | 217 kts | 355° |